sensor_id;sensor_type;location;lat;lon;timestamp;pressure;altitude;pressure_sealevel;temperature;humidity
52855;BME280;38719;51.418;7.286;2023-05-21T00:02:15;99977.69;;;15.02;68.15
52855;BME280;38719;51.418;7.286;2023-05-21T00:04:44;99973.84;;;14.63;68.76
52855;BME280;38719;51.418;7.286;2023-05-21T00:07:12;99974.34;;;14.25;70.02
52855;BME280;38719;51.418;7.286;2023-05-21T00:09:40;99975.78;;;14.30;70.05
52855;BME280;38719;51.418;7.286;2023-05-21T00:12:09;99979.34;;;14.31;70.36
52855;BME280;38719;51.418;7.286;2023-05-21T00:14:37;99971.31;;;14.31;70.46
52855;BME280;38719;51.418;7.286;2023-05-21T00:17:04;99972.94;;;14.03;71.50
52855;BME280;38719;51.418;7.286;2023-05-21T00:19:32;99966.69;;;14.18;70.83
52855;BME280;38719;51.418;7.286;2023-05-21T00:21:59;99961.44;;;14.17;70.63
52855;BME280;38719;51.418;7.286;2023-05-21T00:24:28;99958.56;;;14.20;71.07
52855;BME280;38719;51.418;7.286;2023-05-21T00:26:56;99964.81;;;14.35;70.44
52855;BME280;38719;51.418;7.286;2023-05-21T00:29:25;99962.69;;;14.40;69.69
52855;BME280;38719;51.418;7.286;2023-05-21T00:31:55;99949.97;;;14.44;69.92
52855;BME280;38719;51.418;7.286;2023-05-21T00:34:22;99944.50;;;14.16;70.84
52855;BME280;38719;51.418;7.286;2023-05-21T00:36:50;99945.53;;;13.83;72.00
52855;BME280;38719;51.418;7.286;2023-05-21T00:39:18;99948.88;;;13.73;72.91
52855;BME280;38719;51.418;7.286;2023-05-21T00:41:46;99946.09;;;13.74;71.91
52855;BME280;38719;51.418;7.286;2023-05-21T00:44:14;99950.94;;;13.67;72.92
52855;BME280;38719;51.418;7.286;2023-05-21T00:46:44;99948.69;;;13.60;73.40
52855;BME280;38719;51.418;7.286;2023-05-21T00:49:14;99949.50;;;13.46;73.04
52855;BME280;38719;51.418;7.286;2023-05-21T00:51:41;99945.16;;;13.59;73.30
52855;BME280;38719;51.418;7.286;2023-05-21T00:54:10;99941.91;;;13.84;72.23
52855;BME280;38719;51.418;7.286;2023-05-21T00:56:38;99943.59;;;14.01;71.74
52855;BME280;38719;51.418;7.286;2023-05-21T00:59:05;99942.59;;;13.88;71.91
52855;BME280;38719;51.418;7.286;2023-05-21T01:01:34;99940.78;;;13.89;71.67
52855;BME280;38719;51.418;7.286;2023-05-21T01:04:03;99942.78;;;13.85;71.79
52855;BME280;38719;51.418;7.286;2023-05-21T01:06:31;99942.06;;;13.97;71.42
52855;BME280;38719;51.418;7.286;2023-05-21T01:09:00;99940.16;;;13.69;72.68
52855;BME280;38719;51.418;7.286;2023-05-21T01:11:36;99933.78;;;13.56;73.15
52855;BME280;38719;51.418;7.286;2023-05-21T01:14:05;99933.69;;;13.57;72.67
52855;BME280;38719;51.418;7.286;2023-05-21T01:16:36;99936.38;;;13.41;73.80
52855;BME280;38719;51.418;7.286;2023-05-21T01:19:05;99928.50;;;13.22;74.70
52855;BME280;38719;51.418;7.286;2023-05-21T01:21:36;99927.97;;;13.31;73.71
52855;BME280;38719;51.418;7.286;2023-05-21T01:24:08;99929.22;;;13.26;74.33
52855;BME280;38719;51.418;7.286;2023-05-21T01:26:36;99933.78;;;13.56;73.42
52855;BME280;38719;51.418;7.286;2023-05-21T01:29:06;99928.78;;;13.49;73.09
52855;BME280;38719;51.418;7.286;2023-05-21T01:31:51;99922.97;;;13.25;73.97
52855;BME280;38719;51.418;7.286;2023-05-21T01:34:24;99918.59;;;13.40;73.65
52855;BME280;38719;51.418;7.286;2023-05-21T01:36:59;99926.19;;;13.32;73.70
52855;BME280;38719;51.418;7.286;2023-05-21T01:39:32;99920.06;;;13.30;73.73
52855;BME280;38719;51.418;7.286;2023-05-21T01:42:07;99918.44;;;13.43;73.61
52855;BME280;38719;51.418;7.286;2023-05-21T01:44:35;99915.88;;;13.72;73.50
52855;BME280;38719;51.418;7.286;2023-05-21T01:47:04;99913.00;;;13.45;73.34
52855;BME280;38719;51.418;7.286;2023-05-21T01:49:32;99917.81;;;13.54;73.61
52855;BME280;38719;51.418;7.286;2023-05-21T01:52:00;99907.84;;;13.72;72.43
52855;BME280;38719;51.418;7.286;2023-05-21T01:54:27;99914.34;;;13.68;73.03
52855;BME280;38719;51.418;7.286;2023-05-21T01:56:56;99916.78;;;13.25;74.33
52855;BME280;38719;51.418;7.286;2023-05-21T01:59:25;99908.94;;;13.37;73.58
52855;BME280;38719;51.418;7.286;2023-05-21T02:01:53;99908.69;;;13.42;73.33
52855;BME280;38719;51.418;7.286;2023-05-21T02:04:20;99914.94;;;13.25;74.19
52855;BME280;38719;51.418;7.286;2023-05-21T02:06:48;99907.94;;;13.70;72.72
52855;BME280;38719;51.418;7.286;2023-05-21T02:09:15;99902.56;;;13.24;74.86
52855;BME280;38719;51.418;7.286;2023-05-21T02:11:43;99901.69;;;13.23;74.23
52855;BME280;38719;51.418;7.286;2023-05-21T02:14:12;99903.59;;;13.37;74.30
52855;BME280;38719;51.418;7.286;2023-05-21T02:16:40;99905.22;;;13.40;74.07
52855;BME280;38719;51.418;7.286;2023-05-21T02:19:07;99904.19;;;13.11;74.27
52855;BME280;38719;51.418;7.286;2023-05-21T02:21:36;99902.38;;;13.11;74.88
52855;BME280;38719;51.418;7.286;2023-05-21T02:24:04;99901.59;;;13.25;74.50
52855;BME280;38719;51.418;7.286;2023-05-21T02:26:32;99901.91;;;13.35;73.70
52855;BME280;38719;51.418;7.286;2023-05-21T02:28:59;99902.28;;;13.29;74.19
52855;BME280;38719;51.418;7.286;2023-05-21T02:31:28;99900.63;;;13.26;74.36
52855;BME280;38719;51.418;7.286;2023-05-21T02:33:55;99889.19;;;13.24;73.85
52855;BME280;38719;51.418;7.286;2023-05-21T02:36:23;99893.41;;;13.44;74.43
52855;BME280;38719;51.418;7.286;2023-05-21T02:38:51;99887.94;;;13.62;72.89
52855;BME280;38719;51.418;7.286;2023-05-21T02:41:20;99887.56;;;13.68;72.89
52855;BME280;38719;51.418;7.286;2023-05-21T02:43:48;99889.16;;;13.56;73.49
52855;BME280;38719;51.418;7.286;2023-05-21T02:46:16;99885.31;;;13.76;72.40
52855;BME280;38719;51.418;7.286;2023-05-21T02:48:45;99887.69;;;14.11;71.17
52855;BME280;38719;51.418;7.286;2023-05-21T02:51:12;99890.88;;;13.88;72.05
52855;BME280;38719;51.418;7.286;2023-05-21T02:53:39;99895.41;;;14.01;71.23
52855;BME280;38719;51.418;7.286;2023-05-21T02:56:07;99898.81;;;13.59;72.51
52855;BME280;38719;51.418;7.286;2023-05-21T02:58:35;99887.78;;;13.33;74.20
52855;BME280;38719;51.418;7.286;2023-05-21T03:01:02;99896.56;;;13.35;74.16
52855;BME280;38719;51.418;7.286;2023-05-21T03:03:30;99895.16;;;13.45;72.89
52855;BME280;38719;51.418;7.286;2023-05-21T03:05:59;99894.34;;;13.59;73.11
52855;BME280;38719;51.418;7.286;2023-05-21T03:08:27;99895.72;;;13.81;72.13
52855;BME280;38719;51.418;7.286;2023-05-21T03:10:54;99898.97;;;13.72;72.43
52855;BME280;38719;51.418;7.286;2023-05-21T03:13:22;99895.19;;;13.60;72.54
52855;BME280;38719;51.418;7.286;2023-05-21T03:15:50;99889.00;;;13.43;73.25
52855;BME280;38719;51.418;7.286;2023-05-21T03:18:21;99878.66;;;13.21;74.19
52855;BME280;38719;51.418;7.286;2023-05-21T03:20:48;99875.28;;;13.49;73.50
52855;BME280;38719;51.418;7.286;2023-05-21T03:23:17;99875.88;;;13.54;73.01
52855;BME280;38719;51.418;7.286;2023-05-21T03:25:45;99884.00;;;13.21;74.56
52855;BME280;38719;51.418;7.286;2023-05-21T03:28:12;99877.03;;;13.65;72.89
52855;BME280;38719;51.418;7.286;2023-05-21T03:30:40;99882.94;;;13.56;73.23
52855;BME280;38719;51.418;7.286;2023-05-21T03:33:11;99880.53;;;13.19;74.69
52855;BME280;38719;51.418;7.286;2023-05-21T03:35:39;99871.81;;;13.31;73.84
52855;BME280;38719;51.418;7.286;2023-05-21T03:38:06;99879.09;;;12.97;75.75
52855;BME280;38719;51.418;7.286;2023-05-21T03:40:35;99887.97;;;13.30;74.96
52855;BME280;38719;51.418;7.286;2023-05-21T03:43:03;99877.25;;;13.30;74.33
52855;BME280;38719;51.418;7.286;2023-05-21T03:45:30;99870.88;;;13.48;74.31
52855;BME280;38719;51.418;7.286;2023-05-21T03:47:58;99884.00;;;13.53;73.84
52855;BME280;38719;51.418;7.286;2023-05-21T03:50:27;99874.00;;;13.71;72.72
52855;BME280;38719;51.418;7.286;2023-05-21T03:52:54;99873.94;;;13.73;73.46
52855;BME280;38719;51.418;7.286;2023-05-21T03:55:22;99878.44;;;13.56;73.50
52855;BME280;38719;51.418;7.286;2023-05-21T03:57:51;99882.97;;;13.40;74.03
52855;BME280;38719;51.418;7.286;2023-05-21T04:00:18;99885.75;;;13.38;74.34
52855;BME280;38719;51.418;7.286;2023-05-21T04:02:46;99890.38;;;13.50;73.40
52855;BME280;38719;51.418;7.286;2023-05-21T04:05:14;99877.13;;;13.17;74.76
52855;BME280;38719;51.418;7.286;2023-05-21T04:07:41;99879.59;;;13.36;74.72
52855;BME280;38719;51.418;7.286;2023-05-21T04:10:11;99879.00;;;13.47;74.18
52855;BME280;38719;51.418;7.286;2023-05-21T04:12:39;99880.13;;;13.43;73.76
52855;BME280;38719;51.418;7.286;2023-05-21T04:15:08;99879.84;;;13.47;74.62
52855;BME280;38719;51.418;7.286;2023-05-21T04:17:36;99885.56;;;13.41;74.74
52855;BME280;38719;51.418;7.286;2023-05-21T04:20:06;99876.88;;;13.68;74.37
52855;BME280;38719;51.418;7.286;2023-05-21T04:22:34;99884.72;;;13.41;75.41
52855;BME280;38719;51.418;7.286;2023-05-21T04:25:01;99886.34;;;13.43;74.63
52855;BME280;38719;51.418;7.286;2023-05-21T04:27:29;99883.28;;;13.65;74.35
52855;BME280;38719;51.418;7.286;2023-05-21T04:29:56;99881.28;;;13.83;73.38
52855;BME280;38719;51.418;7.286;2023-05-21T04:32:25;99888.94;;;13.75;73.43
52855;BME280;38719;51.418;7.286;2023-05-21T04:34:53;99887.28;;;14.03;72.93
52855;BME280;38719;51.418;7.286;2023-05-21T04:37:21;99892.94;;;13.98;73.38
52855;BME280;38719;51.418;7.286;2023-05-21T04:39:49;99893.34;;;14.35;71.78
52855;BME280;38719;51.418;7.286;2023-05-21T04:42:17;99878.69;;;14.27;72.04
52855;BME280;38719;51.418;7.286;2023-05-21T04:44:45;99894.22;;;14.36;71.97
52855;BME280;38719;51.418;7.286;2023-05-21T04:47:14;99889.41;;;14.41;70.98
52855;BME280;38719;51.418;7.286;2023-05-21T04:49:43;99893.03;;;14.11;72.32
52855;BME280;38719;51.418;7.286;2023-05-21T04:52:12;99894.38;;;14.33;71.64
52855;BME280;38719;51.418;7.286;2023-05-21T04:54:39;99882.22;;;14.13;71.41
52855;BME280;38719;51.418;7.286;2023-05-21T04:57:07;99886.81;;;14.25;71.72
52855;BME280;38719;51.418;7.286;2023-05-21T04:59:35;99885.91;;;14.41;70.84
52855;BME280;38719;51.418;7.286;2023-05-21T05:02:03;99882.53;;;14.37;70.83
52855;BME280;38719;51.418;7.286;2023-05-21T05:04:30;99889.72;;;14.51;71.09
52855;BME280;38719;51.418;7.286;2023-05-21T05:06:59;99890.31;;;14.42;71.56
52855;BME280;38719;51.418;7.286;2023-05-21T05:09:27;99884.38;;;14.65;70.29
52855;BME280;38719;51.418;7.286;2023-05-21T05:11:55;99879.09;;;14.78;70.23
52855;BME280;38719;51.418;7.286;2023-05-21T05:14:23;99876.97;;;14.83;69.98
52855;BME280;38719;51.418;7.286;2023-05-21T05:16:50;99877.25;;;14.93;69.63
52855;BME280;38719;51.418;7.286;2023-05-21T05:19:19;99877.47;;;14.76;69.26
52855;BME280;38719;51.418;7.286;2023-05-21T05:21:47;99876.53;;;14.77;69.85
52855;BME280;38719;51.418;7.286;2023-05-21T05:24:16;99875.47;;;14.79;70.38
52855;BME280;38719;51.418;7.286;2023-05-21T05:26:44;99872.75;;;14.94;69.85
52855;BME280;38719;51.418;7.286;2023-05-21T05:29:12;99877.56;;;14.89;69.94
52855;BME280;38719;51.418;7.286;2023-05-21T05:31:39;99873.16;;;14.88;69.58
52855;BME280;38719;51.418;7.286;2023-05-21T05:34:07;99879.25;;;14.90;69.87
52855;BME280;38719;51.418;7.286;2023-05-21T05:36:34;99879.31;;;14.75;70.11
52855;BME280;38719;51.418;7.286;2023-05-21T05:39:02;99880.25;;;14.89;69.64
52855;BME280;38719;51.418;7.286;2023-05-21T05:41:31;99880.09;;;15.05;69.33
52855;BME280;38719;51.418;7.286;2023-05-21T05:43:58;99880.53;;;15.26;69.69
52855;BME280;38719;51.418;7.286;2023-05-21T05:46:26;99874.69;;;15.19;69.41
52855;BME280;38719;51.418;7.286;2023-05-21T05:48:53;99877.53;;;15.30;69.13
52855;BME280;38719;51.418;7.286;2023-05-21T05:51:21;99887.56;;;15.41;68.11
52855;BME280;38719;51.418;7.286;2023-05-21T05:53:48;99880.34;;;15.42;69.07
52855;BME280;38719;51.418;7.286;2023-05-21T05:56:16;99874.44;;;15.37;68.59
52855;BME280;38719;51.418;7.286;2023-05-21T05:58:45;99878.53;;;15.70;68.46
52855;BME280;38719;51.418;7.286;2023-05-21T06:01:12;99880.00;;;15.61;67.64
52855;BME280;38719;51.418;7.286;2023-05-21T06:03:40;99883.22;;;15.66;68.29
52855;BME280;38719;51.418;7.286;2023-05-21T06:06:08;99879.31;;;15.44;68.48
52855;BME280;38719;51.418;7.286;2023-05-21T06:08:35;99878.00;;;15.37;69.73
52855;BME280;38719;51.418;7.286;2023-05-21T06:11:03;99874.03;;;15.43;68.34
52855;BME280;38719;51.418;7.286;2023-05-21T06:13:31;99883.69;;;15.45;69.71
52855;BME280;38719;51.418;7.286;2023-05-21T06:16:00;99876.06;;;15.39;69.42
52855;BME280;38719;51.418;7.286;2023-05-21T06:18:27;99871.41;;;15.56;68.47
52855;BME280;38719;51.418;7.286;2023-05-21T06:20:55;99874.09;;;15.69;68.13
52855;BME280;38719;51.418;7.286;2023-05-21T06:23:23;99873.22;;;15.95;68.01
52855;BME280;38719;51.418;7.286;2023-05-21T06:25:50;99875.25;;;16.05;66.94
52855;BME280;38719;51.418;7.286;2023-05-21T06:28:18;99872.81;;;16.15;67.59
52855;BME280;38719;51.418;7.286;2023-05-21T06:30:45;99874.97;;;15.97;67.45
52855;BME280;38719;51.418;7.286;2023-05-21T06:33:14;99877.88;;;16.19;67.29
52855;BME280;38719;51.418;7.286;2023-05-21T06:35:42;99876.78;;;16.09;66.76
52855;BME280;38719;51.418;7.286;2023-05-21T06:38:09;99869.34;;;15.87;67.79
52855;BME280;38719;51.418;7.286;2023-05-21T06:40:37;99867.53;;;16.26;67.65
52855;BME280;38719;51.418;7.286;2023-05-21T06:43:04;99851.63;;;16.49;66.78
52855;BME280;38719;51.418;7.286;2023-05-21T06:45:32;99856.56;;;16.42;66.58
52855;BME280;38719;51.418;7.286;2023-05-21T06:47:59;99854.84;;;16.54;65.82
52855;BME280;38719;51.418;7.286;2023-05-21T06:50:28;99857.31;;;16.44;66.48
52855;BME280;38719;51.418;7.286;2023-05-21T06:52:56;99851.84;;;16.33;66.76
52855;BME280;38719;51.418;7.286;2023-05-21T06:55:23;99856.56;;;16.42;65.82
52855;BME280;38719;51.418;7.286;2023-05-21T06:57:51;99850.75;;;16.61;65.45
52855;BME280;38719;51.418;7.286;2023-05-21T07:00:18;99846.22;;;16.62;65.63
52855;BME280;38719;51.418;7.286;2023-05-21T07:02:46;99845.56;;;16.58;65.31
52855;BME280;38719;51.418;7.286;2023-05-21T07:05:13;99847.31;;;16.59;65.79
52855;BME280;38719;51.418;7.286;2023-05-21T07:07:42;99844.53;;;16.48;65.22
52855;BME280;38719;51.418;7.286;2023-05-21T07:10:10;99841.72;;;16.49;66.11
52855;BME280;38719;51.418;7.286;2023-05-21T07:12:37;99841.03;;;16.71;64.88
52855;BME280;38719;51.418;7.286;2023-05-21T07:15:06;99834.91;;;16.69;65.12
52855;BME280;38719;51.418;7.286;2023-05-21T07:17:37;99837.16;;;16.75;65.11
52855;BME280;38719;51.418;7.286;2023-05-21T07:20:06;99836.44;;;16.60;65.68
52855;BME280;38719;51.418;7.286;2023-05-21T07:22:37;99839.06;;;16.86;65.23
52855;BME280;38719;51.418;7.286;2023-05-21T07:25:07;99836.91;;;16.91;65.39
52855;BME280;38719;51.418;7.286;2023-05-21T07:27:35;99846.59;;;16.94;64.58
52855;BME280;38719;51.418;7.286;2023-05-21T07:30:03;99844.22;;;16.89;64.56
52855;BME280;38719;51.418;7.286;2023-05-21T07:32:30;99844.09;;;16.91;65.33
52855;BME280;38719;51.418;7.286;2023-05-21T07:34:58;99844.97;;;17.04;64.46
52855;BME280;38719;51.418;7.286;2023-05-21T07:37:27;99845.03;;;17.16;64.40
52855;BME280;38719;51.418;7.286;2023-05-21T07:39:56;99853.66;;;17.32;63.74
52855;BME280;38719;51.418;7.286;2023-05-21T07:42:25;99848.34;;;17.44;63.78
52855;BME280;38719;51.418;7.286;2023-05-21T07:44:53;99843.25;;;17.28;64.16
52855;BME280;38719;51.418;7.286;2023-05-21T07:47:20;99840.19;;;17.32;64.05
52855;BME280;38719;51.418;7.286;2023-05-21T07:49:48;99845.50;;;17.34;63.85
52855;BME280;38719;51.418;7.286;2023-05-21T07:52:16;99844.56;;;17.46;63.89
52855;BME280;38719;51.418;7.286;2023-05-21T07:54:43;99850.31;;;17.53;63.13
52855;BME280;38719;51.418;7.286;2023-05-21T07:57:11;99843.72;;;17.57;63.25
52855;BME280;38719;51.418;7.286;2023-05-21T07:59:40;99843.25;;;17.63;63.86
52855;BME280;38719;51.418;7.286;2023-05-21T08:02:07;99850.19;;;17.54;64.87
52855;BME280;38719;51.418;7.286;2023-05-21T08:04:35;99842.56;;;17.72;63.14
52855;BME280;38719;51.418;7.286;2023-05-21T08:07:06;99850.25;;;18.01;62.74
52855;BME280;38719;51.418;7.286;2023-05-21T08:09:35;99855.38;;;17.93;62.45
52855;BME280;38719;51.418;7.286;2023-05-21T08:12:03;99861.22;;;17.87;62.33
52855;BME280;38719;51.418;7.286;2023-05-21T08:14:30;99861.53;;;17.71;62.40
52855;BME280;38719;51.418;7.286;2023-05-21T08:16:59;99850.53;;;18.10;63.01
52855;BME280;38719;51.418;7.286;2023-05-21T08:19:27;99862.00;;;18.00;61.89
52855;BME280;38719;51.418;7.286;2023-05-21T08:21:54;99856.00;;;17.97;62.91
52855;BME280;38719;51.418;7.286;2023-05-21T08:24:22;99865.34;;;18.15;61.78
52855;BME280;38719;51.418;7.286;2023-05-21T08:26:49;99859.84;;;18.28;62.26
52855;BME280;38719;51.418;7.286;2023-05-21T08:29:17;99860.34;;;18.33;62.04
52855;BME280;38719;51.418;7.286;2023-05-21T08:31:44;99875.69;;;18.44;61.45
52855;BME280;38719;51.418;7.286;2023-05-21T08:34:13;99871.53;;;18.51;60.88
52855;BME280;38719;51.418;7.286;2023-05-21T08:36:41;99863.78;;;18.58;61.14
52855;BME280;38719;51.418;7.286;2023-05-21T08:39:11;99865.84;;;18.66;60.90
52855;BME280;38719;51.418;7.286;2023-05-21T08:41:40;99864.50;;;18.83;60.48
52855;BME280;38719;51.418;7.286;2023-05-21T08:44:18;99869.66;;;18.86;61.00
52855;BME280;38719;51.418;7.286;2023-05-21T08:46:48;99868.94;;;18.73;60.04
52855;BME280;38719;51.418;7.286;2023-05-21T08:49:22;99873.97;;;18.77;60.27
52855;BME280;38719;51.418;7.286;2023-05-21T08:51:53;99870.88;;;18.82;60.12
52855;BME280;38719;51.418;7.286;2023-05-21T08:54:21;99869.53;;;18.99;59.78
52855;BME280;38719;51.418;7.286;2023-05-21T08:56:49;99863.47;;;19.18;60.08
52855;BME280;38719;51.418;7.286;2023-05-21T08:59:17;99859.34;;;19.03;59.93
52855;BME280;38719;51.418;7.286;2023-05-21T09:01:47;99862.13;;;19.24;58.53
52855;BME280;38719;51.418;7.286;2023-05-21T09:04:17;99859.69;;;19.21;59.29
52855;BME280;38719;51.418;7.286;2023-05-21T09:06:47;99863.94;;;19.35;59.27
52855;BME280;38719;51.418;7.286;2023-05-21T09:09:18;99862.94;;;19.36;59.30
52855;BME280;38719;51.418;7.286;2023-05-21T09:11:51;99851.91;;;19.60;58.39
52855;BME280;38719;51.418;7.286;2023-05-21T09:14:19;99850.88;;;19.72;57.77
52855;BME280;38719;51.418;7.286;2023-05-21T09:16:47;99851.81;;;19.83;57.95
52855;BME280;38719;51.418;7.286;2023-05-21T09:19:15;99850.09;;;19.81;57.66
52855;BME280;38719;51.418;7.286;2023-05-21T09:21:44;99849.69;;;19.97;58.18
52855;BME280;38719;51.418;7.286;2023-05-21T09:24:12;99851.75;;;19.73;57.16
52855;BME280;38719;51.418;7.286;2023-05-21T09:26:41;99840.66;;;19.76;57.59
52855;BME280;38719;51.418;7.286;2023-05-21T09:29:08;99842.00;;;19.60;57.98
52855;BME280;38719;51.418;7.286;2023-05-21T09:31:42;99843.16;;;19.68;57.80
52855;BME280;38719;51.418;7.286;2023-05-21T09:34:10;99833.91;;;19.81;57.70
52855;BME280;38719;51.418;7.286;2023-05-21T09:36:39;99835.47;;;19.63;58.06
52855;BME280;38719;51.418;7.286;2023-05-21T09:39:08;99836.00;;;19.78;57.58
52855;BME280;38719;51.418;7.286;2023-05-21T09:41:37;99828.44;;;19.93;57.02
52855;BME280;38719;51.418;7.286;2023-05-21T09:44:04;99828.75;;;20.00;56.98
52855;BME280;38719;51.418;7.286;2023-05-21T09:46:38;99825.66;;;20.04;56.82
52855;BME280;38719;51.418;7.286;2023-05-21T09:49:21;99825.13;;;20.10;57.23
52855;BME280;38719;51.418;7.286;2023-05-21T09:51:52;99828.56;;;19.70;58.46
52855;BME280;38719;51.418;7.286;2023-05-21T09:54:22;99826.94;;;19.68;58.71
52855;BME280;38719;51.418;7.286;2023-05-21T09:56:51;99820.03;;;19.86;57.59
52855;BME280;38719;51.418;7.286;2023-05-21T09:59:19;99823.91;;;20.24;56.95
52855;BME280;38719;51.418;7.286;2023-05-21T10:01:49;99818.94;;;20.51;56.74
52855;BME280;38719;51.418;7.286;2023-05-21T10:04:17;99814.47;;;20.40;56.72
52855;BME280;38719;51.418;7.286;2023-05-21T10:06:46;99817.97;;;20.30;57.07
52855;BME280;38719;51.418;7.286;2023-05-21T10:09:17;99806.59;;;20.37;56.65
52855;BME280;38719;51.418;7.286;2023-05-21T10:11:48;99802.91;;;20.38;56.95
52855;BME280;38719;51.418;7.286;2023-05-21T10:14:19;99802.56;;;20.21;57.34
52855;BME280;38719;51.418;7.286;2023-05-21T10:16:47;99796.09;;;20.34;56.59
52855;BME280;38719;51.418;7.286;2023-05-21T10:19:16;99801.19;;;20.37;56.88
52855;BME280;38719;51.418;7.286;2023-05-21T10:21:45;99797.03;;;20.64;57.22
52855;BME280;38719;51.418;7.286;2023-05-21T10:24:16;99796.41;;;20.81;56.01
52855;BME280;38719;51.418;7.286;2023-05-21T10:26:44;99798.97;;;20.92;56.36
52855;BME280;38719;51.418;7.286;2023-05-21T10:29:14;99801.59;;;21.04;56.29
52855;BME280;38719;51.418;7.286;2023-05-21T10:31:45;99800.28;;;20.98;56.11
52855;BME280;38719;51.418;7.286;2023-05-21T10:34:15;99797.75;;;21.16;56.00
52855;BME280;38719;51.418;7.286;2023-05-21T10:36:42;99796.28;;;21.12;56.42
52855;BME280;38719;51.418;7.286;2023-05-21T10:39:11;99788.59;;;21.27;56.12
52855;BME280;38719;51.418;7.286;2023-05-21T10:41:45;99799.44;;;21.17;57.10
52855;BME280;38719;51.418;7.286;2023-05-21T10:44:26;99797.19;;;21.22;57.05
52855;BME280;38719;51.418;7.286;2023-05-21T10:47:29;99786.78;;;21.28;56.18
52855;BME280;38719;51.418;7.286;2023-05-21T10:50:32;99788.91;;;21.34;55.67
52855;BME280;38719;51.418;7.286;2023-05-21T10:53:13;99786.06;;;21.25;56.36
52855;BME280;38719;51.418;7.286;2023-05-21T10:55:51;99784.63;;;21.31;56.14
52855;BME280;38719;51.418;7.286;2023-05-21T10:58:38;99781.63;;;21.44;55.95
52855;BME280;38719;51.418;7.286;2023-05-21T11:01:14;99779.34;;;21.59;55.91
52855;BME280;38719;51.418;7.286;2023-05-21T11:03:45;99777.34;;;21.71;55.33
52855;BME280;38719;51.418;7.286;2023-05-21T11:06:21;99772.75;;;21.81;54.81
52855;BME280;38719;51.418;7.286;2023-05-21T11:08:49;99776.06;;;21.75;55.36
52855;BME280;38719;51.418;7.286;2023-05-21T11:11:41;99775.22;;;21.74;55.66
52855;BME280;38719;51.418;7.286;2023-05-21T11:14:25;99780.47;;;21.86;54.93
52855;BME280;38719;51.418;7.286;2023-05-21T11:16:54;99770.19;;;21.80;55.23
52855;BME280;38719;51.418;7.286;2023-05-21T11:19:32;99765.75;;;21.88;55.50
52855;BME280;38719;51.418;7.286;2023-05-21T11:22:04;99759.06;;;21.73;55.44
52855;BME280;38719;51.418;7.286;2023-05-21T11:24:36;99772.41;;;22.04;55.57
52855;BME280;38719;51.418;7.286;2023-05-21T11:27:04;99762.03;;;22.27;55.34
52855;BME280;38719;51.418;7.286;2023-05-21T11:29:40;99770.50;;;22.24;54.45
52855;BME280;38719;51.418;7.286;2023-05-21T11:32:13;99768.78;;;22.23;54.46
52855;BME280;38719;51.418;7.286;2023-05-21T11:34:44;99776.31;;;22.39;54.20
52855;BME280;38719;51.418;7.286;2023-05-21T11:37:25;99776.47;;;22.37;54.19
52855;BME280;38719;51.418;7.286;2023-05-21T11:39:56;99772.84;;;22.37;54.03
52855;BME280;38719;51.418;7.286;2023-05-21T11:42:31;99773.13;;;22.53;54.17
52855;BME280;38719;51.418;7.286;2023-05-21T11:45:00;99766.38;;;22.76;53.53
52855;BME280;38719;51.418;7.286;2023-05-21T11:47:30;99771.28;;;22.44;53.80
52855;BME280;38719;51.418;7.286;2023-05-21T11:49:59;99773.50;;;22.59;54.07
52855;BME280;38719;51.418;7.286;2023-05-21T11:52:28;99760.81;;;22.77;54.06
52855;BME280;38719;51.418;7.286;2023-05-21T11:54:56;99760.88;;;22.85;53.53
52855;BME280;38719;51.418;7.286;2023-05-21T11:57:26;99757.63;;;22.82;54.45
52855;BME280;38719;51.418;7.286;2023-05-21T11:59:57;99763.78;;;23.02;53.55
52855;BME280;38719;51.418;7.286;2023-05-21T12:02:26;99754.78;;;22.83;53.48
52855;BME280;38719;51.418;7.286;2023-05-21T12:04:55;99759.66;;;22.98;52.93
52855;BME280;38719;51.418;7.286;2023-05-21T12:07:26;99767.03;;;22.88;53.64
52855;BME280;38719;51.418;7.286;2023-05-21T12:09:55;99763.78;;;23.02;53.39
52855;BME280;38719;51.418;7.286;2023-05-21T12:12:25;99758.97;;;22.96;52.90
52855;BME280;38719;51.418;7.286;2023-05-21T12:15:08;99755.66;;;23.02;53.22
52855;BME280;38719;51.418;7.286;2023-05-21T12:17:37;99757.00;;;23.16;53.50
52855;BME280;38719;51.418;7.286;2023-05-21T12:20:07;99753.47;;;23.06;53.26
52855;BME280;38719;51.418;7.286;2023-05-21T12:22:40;99752.09;;;23.20;52.65
52855;BME280;38719;51.418;7.286;2023-05-21T12:25:09;99748.50;;;23.01;53.73
52855;BME280;38719;51.418;7.286;2023-05-21T12:27:38;99760.53;;;22.98;53.27
52855;BME280;38719;51.418;7.286;2023-05-21T12:30:07;99754.88;;;23.10;53.62
52855;BME280;38719;51.418;7.286;2023-05-21T12:32:39;99751.22;;;23.19;53.19
52855;BME280;38719;51.418;7.286;2023-05-21T12:35:19;99754.81;;;23.20;53.29
52855;BME280;38719;51.418;7.286;2023-05-21T12:37:47;99752.47;;;22.89;53.41
52855;BME280;38719;51.418;7.286;2023-05-21T12:40:15;99757.97;;;22.97;54.06
52855;BME280;38719;51.418;7.286;2023-05-21T12:42:44;99756.44;;;23.30;53.57
52855;BME280;38719;51.418;7.286;2023-05-21T12:45:12;99752.06;;;23.38;53.55
52855;BME280;38719;51.418;7.286;2023-05-21T12:47:40;99745.53;;;23.48;53.29
52855;BME280;38719;51.418;7.286;2023-05-21T12:50:09;99743.59;;;23.59;53.09
52855;BME280;38719;51.418;7.286;2023-05-21T12:52:39;99743.53;;;23.95;52.16
52855;BME280;38719;51.418;7.286;2023-05-21T12:55:08;99737.63;;;23.81;52.45
52855;BME280;38719;51.418;7.286;2023-05-21T12:57:37;99738.09;;;23.95;52.54
52855;BME280;38719;51.418;7.286;2023-05-21T13:00:06;99747.13;;;23.77;52.83
52855;BME280;38719;51.418;7.286;2023-05-21T13:02:38;99749.69;;;23.79;52.35
52855;BME280;38719;51.418;7.286;2023-05-21T13:05:08;99739.81;;;24.04;52.71
52855;BME280;38719;51.418;7.286;2023-05-21T13:07:38;99733.72;;;24.10;51.78
52855;BME280;38719;51.418;7.286;2023-05-21T13:10:07;99738.69;;;23.89;51.99
52855;BME280;38719;51.418;7.286;2023-05-21T13:12:35;99727.94;;;23.79;52.39